createdAt,value
2017-08-21T00:01:51.628Z,93.11
2017-08-21T00:04:20.061Z,93.08
2017-08-21T00:06:48.504Z,93.02
2017-08-21T00:09:16.984Z,92.91
2017-08-21T00:11:45.469Z,93.06
2017-08-21T00:14:13.942Z,92.79
2017-08-21T00:16:42.370Z,92.94
2017-08-21T00:19:10.908Z,92.83
2017-08-21T00:21:39.336Z,92.88
2017-08-21T00:24:07.797Z,93.05
2017-08-21T00:26:36.229Z,92.85
2017-08-21T00:29:05.522Z,93.07
2017-08-21T00:31:34.750Z,92.94
2017-08-21T00:34:03.235Z,93.04
2017-08-21T00:36:31.663Z,93.03
2017-08-21T00:39:00.108Z,93.10
2017-08-21T00:41:28.590Z,93.18
2017-08-21T00:43:57.053Z,93.07
2017-08-21T00:46:25.548Z,92.98
2017-08-21T00:48:54.023Z,92.95
2017-08-21T00:51:22.452Z,92.95
2017-08-21T00:53:50.987Z,93.18
2017-08-21T00:56:19.487Z,93.07
2017-08-21T00:58:48.066Z,93.28
2017-08-21T01:01:16.550Z,93.44
2017-08-21T01:03:45.039Z,93.54
2017-08-21T01:06:13.501Z,93.57
2017-08-21T01:08:41.979Z,93.71
2017-08-21T01:11:10.472Z,93.66
2017-08-21T01:13:38.958Z,93.77
2017-08-21T01:16:07.421Z,93.66
2017-08-21T01:18:35.839Z,93.84
2017-08-21T01:21:04.296Z,93.87
2017-08-21T01:23:32.736Z,93.91
2017-08-21T01:26:01.972Z,93.88
2017-08-21T01:28:30.417Z,93.92
2017-08-21T01:30:59.662Z,93.60
2017-08-21T01:33:28.136Z,93.46
2017-08-21T01:35:56.616Z,93.30
2017-08-21T01:38:25.110Z,93.27
2017-08-21T01:40:53.596Z,93.19
2017-08-21T01:43:22.075Z,93.13
2017-08-21T01:45:50.523Z,93.33
2017-08-21T01:48:19.743Z,93.34
2017-08-21T01:50:48.200Z,93.61
2017-08-21T01:53:17.423Z,93.91
2017-08-21T01:55:46.018Z,94.11
2017-08-21T01:58:14.497Z,94.29
2017-08-21T02:00:42.982Z,94.07
2017-08-21T02:03:11.431Z,94.23
2017-08-21T02:05:40.663Z,93.97
2017-08-21T02:08:09.125Z,94.01
2017-08-21T02:10:37.611Z,93.76
2017-08-21T02:13:06.099Z,93.79
2017-08-21T02:15:34.579Z,93.90
2017-08-21T02:18:03.074Z,93.90
2017-08-21T02:20:31.521Z,94.03
2017-08-21T02:23:00.844Z,94.01
2017-08-21T02:25:29.339Z,93.93
2017-08-21T02:27:57.801Z,93.93
2017-08-21T02:30:26.237Z,94.03
2017-08-21T02:32:54.706Z,93.98
2017-08-21T02:35:23.155Z,93.93
2017-08-21T02:37:51.635Z,94.18
2017-08-21T02:40:20.073Z,94.29
2017-08-21T02:42:48.606Z,93.87
2017-08-21T02:45:17.053Z,93.87
2017-08-21T02:47:46.276Z,93.62
2017-08-21T02:50:14.769Z,93.31
2017-08-21T02:52:43.215Z,93.43
2017-08-21T02:55:12.422Z,92.84
2017-08-21T02:57:40.923Z,92.83
2017-08-21T03:00:09.403Z,92.75
2017-08-21T03:02:37.852Z,92.85
2017-08-21T03:05:07.083Z,92.60
2017-08-21T03:07:35.522Z,92.66
2017-08-21T03:10:03.964Z,92.41
2017-08-21T03:12:32.405Z,92.25
2017-08-21T03:15:01.743Z,92.22
2017-08-21T03:17:30.211Z,92.09
2017-08-21T03:19:58.694Z,91.95
2017-08-21T03:22:27.295Z,91.88
2017-08-21T03:24:55.773Z,91.93
2017-08-21T03:27:24.262Z,91.92
2017-08-21T03:29:52.723Z,91.97
2017-08-21T03:32:21.208Z,91.97
2017-08-21T03:34:49.655Z,92.12
2017-08-21T03:37:18.172Z,91.93
2017-08-21T03:39:46.629Z,92.00
2017-08-21T03:42:15.855Z,91.66
2017-08-21T03:44:44.313Z,92.12
2017-08-21T03:47:13.513Z,91.68
2017-08-21T03:49:42.728Z,91.66
2017-08-21T03:52:11.156Z,92.07
2017-08-21T03:54:39.707Z,91.51
2017-08-21T03:57:08.154Z,91.44
2017-08-21T03:59:37.490Z,91.33
2017-08-21T04:02:05.959Z,91.25
2017-08-21T04:04:34.453Z,91.14
2017-08-21T04:07:02.896Z,91.03
2017-08-21T04:09:32.107Z,90.90
2017-08-21T04:12:00.545Z,90.74
2017-08-21T04:14:28.991Z,90.94
2017-08-21T04:16:57.411Z,90.69
2017-08-21T04:19:25.853Z,90.39
2017-08-21T04:21:54.332Z,90.54
2017-08-21T04:24:22.756Z,90.20
2017-08-21T04:26:51.300Z,90.37
2017-08-21T04:29:19.772Z,90.22
2017-08-21T04:31:48.219Z,90.16
2017-08-21T04:34:17.415Z,90.24
2017-08-21T04:36:45.930Z,90.39
2017-08-21T04:39:14.428Z,90.64
2017-08-21T04:41:42.905Z,90.39
2017-08-21T04:44:11.384Z,90.47
2017-08-21T04:46:39.836Z,89.89
2017-08-21T04:49:09.064Z,89.90
2017-08-21T04:51:37.553Z,89.73
2017-08-21T04:54:06.027Z,89.98
2017-08-21T04:56:34.485Z,89.90
2017-08-21T04:59:03.712Z,89.79
2017-08-21T05:01:32.155Z,89.57
2017-08-21T05:04:01.347Z,89.49
2017-08-21T05:06:29.808Z,89.44
2017-08-21T05:08:58.245Z,89.53
2017-08-21T05:11:26.736Z,89.51
2017-08-21T05:13:55.221Z,89.14
2017-08-21T05:16:23.706Z,88.89
2017-08-21T05:18:52.190Z,88.63
2017-08-21T05:21:20.656Z,89.09
2017-08-21T05:23:49.147Z,88.84
2017-08-21T05:26:17.638Z,88.87
2017-08-21T05:28:46.120Z,88.68
2017-08-21T05:31:14.551Z,88.41
2017-08-21T05:33:43.800Z,88.24
2017-08-21T05:36:12.268Z,87.97
2017-08-21T05:38:40.715Z,87.68
2017-08-21T05:41:09.943Z,87.29
2017-08-21T05:43:38.443Z,87.28
2017-08-21T05:46:06.916Z,86.51
2017-08-21T05:48:35.412Z,86.96
2017-08-21T05:51:03.843Z,86.37
2017-08-21T05:53:33.090Z,85.92
2017-08-21T05:56:01.515Z,85.91
2017-08-21T05:58:30.048Z,85.67
2017-08-21T06:00:58.512Z,85.62
2017-08-21T06:03:27.013Z,84.43
2017-08-21T06:05:55.453Z,84.95
2017-08-21T06:08:24.787Z,84.67
2017-08-21T06:10:53.281Z,84.33
2017-08-21T06:13:21.715Z,84.49
2017-08-21T06:15:50.931Z,83.76
2017-08-21T06:18:20.151Z,83.60
2017-08-21T06:20:48.608Z,82.88
2017-08-21T06:23:17.805Z,82.77
2017-08-21T06:25:47.135Z,82.76
2017-08-21T06:28:15.582Z,81.75
2017-08-21T06:30:44.811Z,81.38
2017-08-21T06:33:13.296Z,82.06
2017-08-21T06:35:41.733Z,80.55
2017-08-21T06:38:10.162Z,80.34
2017-08-21T06:40:38.613Z,80.84
2017-08-21T06:43:07.121Z,80.47
2017-08-21T06:45:35.607Z,80.10
2017-08-21T06:48:04.036Z,80.13
2017-08-21T06:50:32.492Z,79.69
2017-08-21T06:53:00.925Z,79.17
2017-08-21T06:55:29.438Z,79.11
2017-08-21T06:57:57.913Z,78.89
2017-08-21T07:00:26.491Z,79.45
2017-08-21T07:02:54.929Z,79.73
2017-08-21T07:05:23.461Z,79.11
2017-08-21T07:07:52.025Z,78.78
2017-08-21T07:10:20.524Z,78.76
2017-08-21T07:12:49.003Z,78.12
2017-08-21T07:15:17.488Z,79.12
2017-08-21T07:17:45.981Z,78.87
2017-08-21T07:20:14.416Z,79.36
2017-08-21T07:22:43.645Z,78.80
2017-08-21T07:25:12.145Z,78.55
2017-08-21T07:27:40.627Z,78.89
2017-08-21T07:30:09.072Z,77.67
2017-08-21T07:32:38.400Z,76.81
2017-08-21T07:35:06.822Z,77.24
2017-08-21T07:37:35.271Z,76.45
2017-08-21T07:40:03.708Z,75.20
2017-08-21T07:42:32.954Z,75.65
2017-08-21T07:45:01.394Z,75.53
2017-08-21T07:47:30.739Z,75.76
2017-08-21T07:49:59.219Z,76.35
2017-08-21T07:52:27.673Z,75.84
2017-08-21T07:54:56.119Z,76.09
2017-08-21T07:57:24.558Z,75.85
2017-08-21T07:59:53.021Z,74.17
2017-08-21T08:02:21.439Z,73.95
2017-08-21T08:04:49.884Z,74.07
2017-08-21T08:07:18.371Z,74.32
2017-08-21T08:09:46.832Z,74.83
2017-08-21T08:12:16.056Z,75.36
2017-08-21T08:14:44.540Z,75.45
2017-08-21T08:17:13.030Z,75.49
2017-08-21T08:19:41.495Z,76.28
2017-08-21T08:22:09.921Z,76.59
2017-08-21T08:24:38.463Z,76.82
2017-08-21T08:27:06.887Z,76.62
2017-08-21T08:29:35.429Z,76.93
2017-08-21T08:32:03.918Z,77.25
2017-08-21T08:34:32.373Z,77.06
2017-08-21T08:37:00.867Z,76.68
2017-08-21T08:39:29.374Z,75.75
2017-08-21T08:41:57.850Z,75.35
2017-08-21T08:44:26.279Z,74.93
2017-08-21T08:46:54.809Z,74.43
2017-08-21T08:49:23.279Z,73.56
2017-08-21T08:51:51.778Z,73.66
2017-08-21T08:54:20.240Z,72.78
2017-08-21T08:56:48.733Z,72.35
2017-08-21T08:59:17.169Z,71.82
2017-08-21T09:01:45.705Z,70.00
2017-08-21T09:04:14.193Z,70.62
2017-08-21T09:06:42.660Z,69.76
2017-08-21T09:09:11.154Z,70.88
2017-08-21T09:11:39.589Z,71.02
2017-08-21T09:14:08.823Z,70.68
2017-08-21T09:16:38.232Z,71.50
2017-08-21T09:19:06.669Z,70.63
2017-08-21T09:21:35.892Z,70.29
2017-08-21T09:24:04.406Z,69.10
2017-08-21T09:26:32.852Z,68.51
2017-08-21T09:29:01.366Z,68.81
2017-08-21T09:31:29.831Z,68.98
2017-08-21T09:33:58.255Z,68.45
2017-08-21T09:36:26.719Z,68.71
2017-08-21T09:38:55.189Z,68.91
2017-08-21T09:41:23.624Z,69.89
2017-08-21T09:43:52.849Z,70.52
2017-08-21T09:46:21.351Z,71.04
2017-08-21T09:48:49.803Z,70.07
2017-08-21T09:51:18.299Z,70.10
2017-08-21T09:53:46.788Z,69.27
2017-08-21T09:56:15.278Z,68.53
2017-08-21T09:58:43.729Z,67.86
2017-08-21T10:01:12.933Z,67.96
2017-08-21T10:03:41.443Z,66.83
2017-08-21T10:06:09.871Z,66.55
2017-08-21T10:08:38.401Z,66.08
2017-08-21T10:11:06.885Z,66.46
2017-08-21T10:13:35.375Z,65.71
2017-08-21T10:16:36.000Z,65.87
2017-08-21T10:19:04.481Z,66.46
2017-08-21T10:21:32.904Z,67.03
2017-08-21T10:24:01.358Z,68.47
2017-08-21T10:26:29.832Z,68.83
2017-08-21T10:28:58.295Z,68.08
2017-08-21T10:31:26.725Z,68.28
2017-08-21T10:33:55.273Z,67.67
2017-08-21T10:36:23.709Z,66.74
2017-08-21T10:38:52.241Z,65.75
2017-08-21T10:41:20.685Z,66.55
2017-08-21T10:43:49.187Z,65.16
2017-08-21T10:46:17.675Z,64.83
2017-08-21T10:48:46.165Z,66.17
2017-08-21T10:51:14.601Z,65.59
2017-08-21T10:53:43.124Z,66.63
2017-08-21T10:56:11.599Z,66.33
2017-08-21T10:58:40.043Z,67.82
2017-08-21T11:01:08.581Z,68.71
2017-08-21T11:03:37.048Z,68.65
2017-08-21T11:06:05.532Z,69.42
2017-08-21T11:08:33.989Z,68.38
2017-08-21T11:11:02.507Z,67.70
2017-08-21T11:13:30.957Z,66.60
2017-08-21T11:15:59.401Z,65.92
2017-08-21T11:18:27.949Z,65.84
2017-08-21T11:20:56.434Z,66.23
2017-08-21T11:23:24.908Z,65.49
2017-08-21T11:25:53.395Z,65.31
2017-08-21T11:28:21.888Z,66.50
2017-08-21T11:30:50.345Z,66.18
2017-08-21T11:33:18.850Z,66.99
2017-08-21T11:35:47.294Z,67.51
2017-08-21T11:38:16.515Z,67.83
2017-08-21T11:40:44.955Z,67.18
2017-08-21T11:43:13.383Z,65.33
2017-08-21T11:45:41.846Z,64.96
2017-08-21T11:48:10.848Z,64.52
2017-08-21T11:50:39.341Z,64.23
2017-08-21T11:53:07.767Z,64.29
2017-08-21T11:55:36.229Z,63.96
2017-08-21T11:58:04.651Z,63.91
2017-08-21T12:00:33.109Z,64.54
2017-08-21T12:03:01.532Z,65.59
2017-08-21T12:05:30.025Z,64.33
2017-08-21T12:07:58.504Z,63.69
2017-08-21T12:10:26.992Z,62.98
2017-08-21T12:12:55.420Z,63.91
2017-08-21T12:15:23.943Z,63.83
2017-08-21T12:17:52.377Z,61.94
2017-08-21T12:20:20.912Z,62.12
2017-08-21T12:22:49.345Z,62.59
2017-08-21T12:25:17.885Z,63.82
2017-08-21T12:27:46.360Z,69.07
2017-08-21T12:30:14.817Z,71.32
2017-08-21T12:32:43.328Z,69.64
2017-08-21T12:35:11.818Z,69.84
2017-08-21T12:37:40.288Z,71.35
2017-08-21T12:40:08.785Z,72.13
2017-08-21T12:42:37.225Z,71.57
2017-08-21T12:45:05.663Z,71.66
2017-08-21T12:47:34.108Z,69.68
2017-08-21T12:50:02.526Z,69.02
2017-08-21T12:52:31.085Z,68.01
2017-08-21T12:54:59.551Z,66.87
2017-08-21T12:57:28.013Z,65.28
2017-08-21T12:59:56.533Z,67.28
2017-08-21T13:02:24.992Z,65.26
2017-08-21T13:04:53.499Z,64.39
2017-08-21T13:07:21.972Z,62.78
2017-08-21T13:09:50.461Z,63.74
2017-08-21T13:12:18.913Z,62.80
2017-08-21T13:14:47.434Z,63.08
2017-08-21T13:17:15.888Z,62.75
2017-08-21T13:19:44.395Z,62.15
2017-08-21T13:22:12.855Z,58.92
2017-08-21T13:24:41.343Z,58.19
2017-08-21T13:27:09.801Z,59.97
2017-08-21T13:29:38.224Z,58.24
2017-08-21T13:32:06.673Z,58.05
2017-08-21T13:34:35.159Z,57.98
2017-08-21T13:37:03.614Z,56.94
2017-08-21T13:39:32.045Z,56.85
2017-08-21T13:42:00.785Z,57.67
2017-08-21T13:44:29.313Z,57.81
2017-08-21T13:46:57.755Z,58.36
2017-08-21T13:49:26.265Z,59.13
2017-08-21T13:51:54.687Z,59.79
2017-08-21T13:54:23.136Z,60.61
2017-08-21T13:56:51.608Z,61.06
2017-08-21T13:59:20.065Z,64.15
2017-08-21T14:01:48.577Z,64.83
2017-08-21T14:04:17.024Z,64.53
2017-08-21T14:06:45.462Z,65.03
2017-08-21T14:09:13.992Z,64.87
2017-08-21T14:11:42.495Z,64.89
2017-08-21T14:14:10.976Z,64.50
2017-08-21T14:16:39.476Z,64.71
2017-08-21T14:19:07.919Z,65.02
2017-08-21T14:21:36.427Z,64.03
2017-08-21T14:24:04.912Z,62.70
2017-08-21T14:26:33.401Z,62.66
2017-08-21T14:29:01.873Z,62.75
2017-08-21T14:31:30.296Z,62.54
2017-08-21T14:33:58.850Z,61.51
2017-08-21T14:36:27.316Z,61.50
2017-08-21T14:38:55.813Z,60.66
2017-08-21T14:41:24.279Z,60.46
2017-08-21T14:43:52.771Z,60.11
2017-08-21T14:46:21.242Z,61.09
2017-08-21T14:48:49.663Z,61.92
2017-08-21T14:51:18.125Z,62.77
2017-08-21T14:53:46.595Z,62.71
2017-08-21T14:56:15.035Z,61.52
2017-08-21T14:58:43.556Z,60.22
2017-08-21T15:01:12.047Z,60.40
2017-08-21T15:03:40.484Z,59.07
2017-08-21T15:06:09.004Z,59.35
2017-08-21T15:08:37.498Z,57.35
2017-08-21T15:11:05.939Z,56.28
2017-08-21T15:13:34.363Z,57.91
2017-08-21T15:16:02.832Z,58.21
2017-08-21T15:18:31.307Z,59.14
2017-08-21T15:20:59.801Z,58.49
2017-08-21T15:23:28.233Z,58.53
2017-08-21T15:25:56.765Z,58.15
2017-08-21T15:28:25.246Z,57.86
2017-08-21T15:30:53.699Z,57.49
2017-08-21T15:33:22.195Z,56.20
2017-08-21T15:35:50.649Z,56.89
2017-08-21T15:38:19.884Z,57.02
2017-08-21T15:40:48.344Z,56.97
2017-08-21T15:43:16.851Z,56.75
2017-08-21T15:45:45.327Z,56.55
2017-08-21T15:48:13.751Z,56.82
2017-08-21T15:50:42.228Z,57.01
2017-08-21T15:53:10.672Z,56.96
2017-08-21T15:55:39.152Z,56.32
2017-08-21T15:58:07.645Z,56.19
2017-08-21T16:00:36.071Z,55.98
2017-08-21T16:03:04.600Z,56.72
2017-08-21T16:05:33.090Z,57.24
2017-08-21T16:08:01.563Z,57.50
2017-08-21T16:10:30.049Z,57.59
2017-08-21T16:12:58.538Z,58.06
2017-08-21T16:15:26.967Z,58.29
2017-08-21T16:17:55.501Z,59.45
2017-08-21T16:20:23.945Z,58.44
2017-08-21T16:22:52.452Z,58.21
2017-08-21T16:25:20.946Z,58.50
2017-08-21T16:27:49.392Z,58.92
2017-08-21T16:30:17.808Z,59.67
2017-08-21T16:32:46.295Z,59.84
2017-08-21T16:35:14.724Z,60.10
2017-08-21T16:37:43.253Z,60.34
2017-08-21T16:40:11.735Z,60.85
2017-08-21T16:42:40.190Z,61.11
2017-08-21T16:45:08.692Z,61.52
2017-08-21T16:47:37.154Z,61.63
2017-08-21T16:50:05.593Z,61.26
2017-08-21T16:52:34.043Z,61.99
2017-08-21T16:55:02.483Z,62.13
2017-08-21T16:57:30.908Z,62.76
2017-08-21T16:59:59.376Z,63.17
2017-08-21T17:02:27.851Z,62.80
2017-08-21T17:04:56.351Z,63.26
2017-08-21T17:07:24.834Z,62.76
2017-08-21T17:09:53.313Z,62.63
2017-08-21T17:12:21.745Z,63.28
2017-08-21T17:14:50.265Z,62.87
2017-08-21T17:17:18.716Z,62.64
2017-08-21T17:19:47.173Z,62.35
2017-08-21T17:22:15.707Z,62.25
2017-08-21T17:24:44.187Z,62.28
2017-08-21T17:27:12.681Z,62.04
2017-08-21T17:29:41.119Z,62.46
2017-08-21T17:32:09.544Z,62.39
2017-08-21T17:34:37.987Z,63.13
2017-08-21T17:37:06.503Z,63.49
2017-08-21T17:39:35.001Z,63.95
2017-08-21T17:42:03.468Z,64.40
2017-08-21T17:44:32.014Z,64.74
2017-08-21T17:47:00.445Z,65.25
2017-08-21T17:49:28.905Z,65.96
2017-08-21T17:51:57.406Z,65.83
2017-08-21T17:54:25.875Z,66.11
2017-08-21T17:56:54.334Z,66.90
2017-08-21T17:59:22.852Z,67.49
2017-08-21T18:01:51.291Z,67.80
2017-08-21T18:04:19.784Z,67.76
2017-08-21T18:06:48.299Z,67.57
2017-08-21T18:09:16.781Z,67.49
2017-08-21T18:11:45.261Z,67.91
2017-08-21T18:14:13.691Z,68.31
2017-08-21T18:16:42.153Z,68.39
2017-08-21T18:19:10.584Z,68.61
2017-08-21T18:21:39.080Z,68.96
2017-08-21T18:24:07.504Z,69.19
2017-08-21T18:26:36.046Z,69.63
2017-08-21T18:29:04.529Z,70.25
2017-08-21T18:31:32.983Z,69.42
2017-08-21T18:34:01.421Z,69.34
2017-08-21T18:36:29.960Z,69.43
2017-08-21T18:38:58.457Z,69.83
2017-08-21T18:41:26.928Z,70.29
2017-08-21T18:43:55.421Z,70.20
2017-08-21T18:46:23.866Z,70.46
2017-08-21T18:48:52.385Z,70.77
2017-08-21T18:51:20.871Z,70.56
2017-08-21T18:53:49.336Z,71.30
2017-08-21T18:56:17.833Z,70.75
2017-08-21T18:58:46.310Z,70.83
2017-08-21T19:01:14.788Z,70.76
2017-08-21T19:03:43.267Z,71.08
2017-08-21T19:06:11.757Z,71.18
2017-08-21T19:08:40.234Z,71.52
2017-08-21T19:11:08.664Z,71.90
2017-08-21T19:13:37.129Z,72.29
2017-08-21T19:16:05.553Z,72.50
2017-08-21T19:18:34.006Z,72.95
2017-08-21T19:21:02.432Z,73.01
2017-08-21T19:23:30.919Z,73.76
2017-08-21T19:25:59.414Z,73.88
2017-08-21T19:28:27.894Z,73.84
2017-08-21T19:30:56.378Z,74.62
2017-08-21T19:33:24.836Z,74.37
2017-08-21T19:35:54.037Z,74.38
2017-08-21T19:38:22.488Z,74.99
2017-08-21T19:40:51.012Z,75.21
2017-08-21T19:43:19.495Z,75.17
2017-08-21T19:45:47.933Z,75.59
2017-08-21T19:48:17.175Z,75.41
2017-08-21T19:50:45.613Z,75.70
2017-08-21T19:53:14.068Z,75.50
2017-08-21T19:55:42.505Z,75.36
2017-08-21T19:58:11.000Z,75.49
2017-08-21T20:00:39.459Z,75.68
2017-08-21T20:03:07.888Z,75.75
2017-08-21T20:05:36.342Z,76.14
2017-08-21T20:08:04.842Z,76.07
2017-08-21T20:10:33.318Z,76.43
2017-08-21T20:13:01.797Z,76.87
2017-08-21T20:15:30.279Z,76.82
2017-08-21T20:17:58.761Z,77.26
2017-08-21T20:20:27.204Z,77.54
2017-08-21T20:22:55.727Z,77.33
2017-08-21T20:25:24.177Z,77.71
2017-08-21T20:27:52.621Z,77.74
2017-08-21T20:30:21.172Z,77.69
2017-08-21T20:32:49.658Z,77.70
2017-08-21T20:35:18.118Z,77.81
2017-08-21T20:37:46.605Z,77.40
2017-08-21T20:40:15.083Z,77.31
2017-08-21T20:42:43.586Z,77.29
2017-08-21T20:45:12.051Z,77.23
2017-08-21T20:47:40.546Z,77.35
2017-08-21T20:50:08.992Z,77.33
2017-08-21T20:52:37.509Z,77.20
2017-08-21T20:55:06.000Z,77.08
2017-08-21T20:57:34.432Z,77.30
2017-08-21T21:00:02.954Z,77.04
2017-08-21T21:02:31.381Z,77.18
2017-08-21T21:04:59.918Z,77.47
2017-08-21T21:07:28.362Z,77.49
2017-08-21T21:09:56.817Z,77.43
2017-08-21T21:12:25.366Z,77.58
2017-08-21T21:14:53.817Z,77.56
2017-08-21T21:17:22.311Z,77.75
2017-08-21T21:19:50.769Z,77.83
2017-08-21T21:22:19.294Z,77.91
2017-08-21T21:24:47.779Z,78.25
2017-08-21T21:27:16.244Z,78.54
2017-08-21T21:29:44.727Z,79.04
2017-08-21T21:32:13.211Z,79.56
2017-08-21T21:34:41.691Z,79.66
2017-08-21T21:37:10.189Z,79.87
2017-08-21T21:39:38.611Z,79.91
2017-08-21T21:42:07.147Z,80.13
2017-08-21T21:44:35.629Z,80.53
2017-08-21T21:47:04.083Z,80.64
2017-08-21T21:49:32.519Z,81.17
2017-08-21T21:52:01.059Z,81.00
2017-08-21T21:54:29.580Z,81.23
2017-08-21T21:56:58.131Z,81.17
2017-08-21T21:59:26.620Z,81.66
2017-08-21T22:01:55.063Z,81.52
2017-08-21T22:04:23.584Z,81.77
2017-08-21T22:06:52.064Z,81.95
2017-08-21T22:09:20.486Z,82.05
2017-08-21T22:11:49.033Z,82.00
2017-08-21T22:14:17.513Z,82.42
2017-08-21T22:16:46.005Z,82.35
2017-08-21T22:19:14.468Z,82.39
2017-08-21T22:21:42.961Z,82.22
2017-08-21T22:24:11.423Z,82.72
2017-08-21T22:26:39.921Z,82.93
2017-08-21T22:29:08.395Z,83.01
2017-08-21T22:31:36.872Z,83.27
2017-08-21T22:34:05.363Z,83.38
2017-08-21T22:36:33.843Z,83.37
2017-08-21T22:39:02.336Z,83.56
2017-08-21T22:41:30.768Z,83.76
2017-08-21T22:43:59.299Z,83.80
2017-08-21T22:46:27.772Z,83.87
2017-08-21T22:48:56.216Z,84.02
2017-08-21T22:51:24.731Z,84.35
2017-08-21T22:53:53.216Z,84.09
2017-08-21T22:56:21.635Z,84.50
2017-08-21T22:58:50.094Z,84.61
2017-08-21T23:04:10.047Z,84.75
2017-08-21T23:06:38.568Z,84.75
2017-08-21T23:09:07.048Z,84.88
2017-08-21T23:11:35.472Z,85.14
2017-08-21T23:14:04.016Z,85.10
2017-08-21T23:16:32.502Z,85.21
2017-08-21T23:19:00.971Z,85.34
2017-08-21T23:21:29.420Z,85.28
2017-08-21T23:23:57.849Z,85.49
2017-08-21T23:26:26.324Z,85.42
2017-08-21T23:28:54.809Z,85.48
2017-08-21T23:31:23.294Z,85.56
2017-08-21T23:33:51.764Z,85.91
2017-08-21T23:36:20.207Z,85.81
2017-08-21T23:38:48.624Z,86.16
2017-08-21T23:41:17.067Z,86.35
2017-08-21T23:43:45.599Z,86.31
2017-08-21T23:46:14.067Z,86.54
2017-08-21T23:48:42.487Z,86.33
2017-08-21T23:51:10.926Z,86.57
2017-08-21T23:53:39.408Z,86.54
2017-08-21T23:56:07.871Z,86.93
2017-08-21T23:58:37.083Z,87.16
